createdAt,value
2017-07-10T00:01:12.003Z,27.10
2017-07-10T00:03:40.603Z,27.08
2017-07-10T00:06:08.145Z,24.25
2017-07-10T00:08:36.694Z,24.75
2017-07-10T00:11:04.485Z,25.37
2017-07-10T00:13:32.016Z,27.35
2017-07-10T00:15:59.546Z,27.20
2017-07-10T00:18:27.149Z,27.60
2017-07-10T00:20:55.501Z,27.15
2017-07-10T00:23:23.035Z,26.58
2017-07-10T00:25:50.546Z,26.65
2017-07-10T00:28:19.086Z,26.17
2017-07-10T00:30:46.779Z,28.02
2017-07-10T00:33:14.384Z,29.10
2017-07-10T00:35:41.923Z,28.87
2017-07-10T00:38:09.669Z,28.95
2017-07-10T00:40:38.086Z,28.08
2017-07-10T00:43:05.602Z,26.67
2017-07-10T00:45:34.239Z,27.05
2017-07-10T00:48:01.814Z,26.73
2017-07-10T00:50:29.793Z,27.30
2017-07-10T00:52:57.691Z,24.77
2017-07-10T00:55:25.406Z,27.17
2017-07-10T00:57:52.974Z,25.77
2017-07-10T01:00:20.509Z,27.35
2017-07-10T01:02:48.087Z,25.58
2017-07-10T01:05:15.926Z,25.65
2017-07-10T01:07:43.790Z,24.40
2017-07-10T01:10:11.350Z,24.23
2017-07-10T01:12:38.938Z,24.48
2017-07-10T01:15:07.493Z,24.42
2017-07-10T01:17:35.117Z,25.65
2017-07-10T01:20:02.629Z,25.80
2017-07-10T01:22:30.181Z,23.33
2017-07-10T01:24:57.750Z,23.48
2017-07-10T01:27:25.334Z,25.98
2017-07-10T01:30:00.119Z,27.33
2017-07-10T01:32:27.710Z,26.13
2017-07-10T01:34:56.012Z,26.30
2017-07-10T01:37:23.558Z,23.40
2017-07-10T01:39:51.099Z,24.17
2017-07-10T01:42:19.444Z,22.55
2017-07-10T01:44:47.006Z,21.80
2017-07-10T01:47:14.530Z,21.98
2017-07-10T01:49:42.149Z,21.20
2017-07-10T01:52:10.481Z,21.33
2017-07-10T01:54:37.990Z,22.35
2017-07-10T01:57:05.755Z,22.65
2017-07-10T01:59:33.297Z,20.00
2017-07-10T02:02:01.598Z,20.70
2017-07-10T02:04:29.165Z,19.15
2017-07-10T02:06:56.845Z,19.20
2017-07-10T02:09:24.398Z,20.80
2017-07-10T02:11:51.930Z,17.85
2017-07-10T02:14:19.513Z,22.35
2017-07-10T02:16:47.026Z,22.05
2017-07-10T02:19:15.363Z,22.85
2017-07-10T02:21:42.940Z,20.50
2017-07-10T02:24:10.517Z,19.75
2017-07-10T02:26:38.056Z,20.88
2017-07-10T02:29:06.729Z,19.62
2017-07-10T02:31:34.290Z,18.10
2017-07-10T02:34:01.866Z,18.12
2017-07-10T02:36:30.419Z,17.35
2017-07-10T02:38:58.010Z,19.15
2017-07-10T02:41:26.323Z,18.25
2017-07-10T02:43:53.835Z,16.50
2017-07-10T02:46:22.118Z,18.15
2017-07-10T02:48:50.483Z,16.87
2017-07-10T02:51:18.023Z,17.30
2017-07-10T02:53:45.965Z,16.67
2017-07-10T02:56:13.503Z,17.12
2017-07-10T02:58:41.079Z,17.73
2017-07-10T03:01:08.946Z,17.62
2017-07-10T03:03:36.485Z,16.95
2017-07-10T03:06:04.017Z,16.37
2017-07-10T03:08:31.536Z,15.73
2017-07-10T03:10:59.105Z,14.35
2017-07-10T03:13:26.617Z,15.23
2017-07-10T03:15:54.199Z,15.50
2017-07-10T03:18:21.758Z,16.02
2017-07-10T03:20:49.278Z,16.17
2017-07-10T03:23:16.876Z,17.87
2017-07-10T03:25:44.431Z,35.33
2017-07-10T03:28:12.150Z,30.83
2017-07-10T03:30:39.694Z,21.60
2017-07-10T03:33:07.407Z,23.00
2017-07-10T03:35:34.939Z,21.62
2017-07-10T03:38:02.859Z,16.15
2017-07-10T03:40:31.550Z,17.02
2017-07-10T03:43:00.082Z,17.60
2017-07-10T03:45:27.634Z,18.23
2017-07-10T03:47:55.420Z,16.58
2017-07-10T03:50:23.001Z,16.27
2017-07-10T03:52:51.342Z,17.52
2017-07-10T03:55:18.870Z,16.35
2017-07-10T03:57:46.424Z,15.73
2017-07-10T04:00:14.190Z,16.27
2017-07-10T04:02:41.790Z,15.45
2017-07-10T04:05:10.131Z,26.10
2017-07-10T04:07:38.680Z,14.70
2017-07-10T04:10:07.005Z,14.55
2017-07-10T04:12:34.630Z,13.90
2017-07-10T04:15:02.177Z,17.40
2017-07-10T04:17:29.718Z,17.15
2017-07-10T04:19:58.106Z,16.70
2017-07-10T04:22:26.413Z,15.43
2017-07-10T04:24:53.917Z,14.73
2017-07-10T04:27:21.475Z,12.90
2017-07-10T04:29:49.010Z,13.75
2017-07-10T04:32:16.552Z,13.40
2017-07-10T04:34:44.102Z,12.50
2017-07-10T04:37:11.654Z,12.37
2017-07-10T04:39:39.753Z,15.27
2017-07-10T04:42:07.545Z,15.45
2017-07-10T04:44:35.942Z,15.05
2017-07-10T04:47:03.508Z,15.15
2017-07-10T04:49:31.138Z,13.90
2017-07-10T04:51:59.415Z,15.02
2017-07-10T04:54:27.002Z,13.27
2017-07-10T04:56:54.794Z,12.32
2017-07-10T04:59:22.367Z,12.95
2017-07-10T05:01:50.251Z,12.57
2017-07-10T05:04:18.017Z,12.57
2017-07-10T05:06:45.649Z,12.50
2017-07-10T05:09:13.193Z,13.30
2017-07-10T05:11:40.730Z,13.50
2017-07-10T05:14:08.271Z,11.98
2017-07-10T05:16:35.843Z,10.68
2017-07-10T05:19:03.453Z,10.20
2017-07-10T05:21:30.935Z,10.20
2017-07-10T05:23:59.285Z,11.35
2017-07-10T05:26:26.841Z,10.63
2017-07-10T05:28:54.475Z,11.45
2017-07-10T05:31:22.029Z,11.52
2017-07-10T05:33:49.581Z,12.07
2017-07-10T05:36:17.167Z,13.02
2017-07-10T05:38:44.774Z,12.40
2017-07-10T05:41:12.356Z,11.80
2017-07-10T05:43:40.001Z,11.98
2017-07-10T05:46:07.541Z,12.43
2017-07-10T05:48:35.097Z,12.32
2017-07-10T05:51:02.632Z,13.13
2017-07-10T05:53:31.001Z,12.43
2017-07-10T05:55:58.518Z,10.18
2017-07-10T05:58:26.187Z,11.95
2017-07-10T06:00:53.734Z,11.00
2017-07-10T06:03:22.206Z,10.30
2017-07-10T06:05:50.015Z,11.65
2017-07-10T06:08:17.872Z,10.27
2017-07-10T06:10:45.564Z,12.32
2017-07-10T06:13:13.886Z,12.02
2017-07-10T06:15:41.483Z,10.20
2017-07-10T06:18:09.022Z,10.88
2017-07-10T06:20:36.879Z,9.05
2017-07-10T06:23:04.445Z,10.77
2017-07-10T06:25:31.949Z,12.55
2017-07-10T06:27:59.520Z,12.82
2017-07-10T06:30:27.190Z,13.02
2017-07-10T06:32:55.077Z,8.40
2017-07-10T06:35:22.657Z,7.30
2017-07-10T06:37:50.482Z,7.20
2017-07-10T06:40:17.991Z,6.82
2017-07-10T06:42:46.258Z,7.28
2017-07-10T06:45:13.781Z,7.72
2017-07-10T06:47:41.349Z,7.68
2017-07-10T06:50:09.195Z,9.77
2017-07-10T06:52:36.706Z,10.52
2017-07-10T06:55:05.069Z,12.10
2017-07-10T06:57:32.633Z,12.43
2017-07-10T07:00:00.939Z,12.43
2017-07-10T07:02:28.553Z,12.57
2017-07-10T07:04:56.391Z,12.98
2017-07-10T07:07:24.250Z,13.50
2017-07-10T07:09:52.012Z,12.10
2017-07-10T07:12:19.567Z,13.13
2017-07-10T07:14:47.555Z,12.27
2017-07-10T07:17:15.398Z,12.65
2017-07-10T07:19:42.905Z,12.60
2017-07-10T07:22:11.442Z,11.52
2017-07-10T07:24:39.122Z,13.02
2017-07-10T07:27:07.081Z,15.98
2017-07-10T07:29:35.413Z,14.87
2017-07-10T07:32:02.993Z,13.90
2017-07-10T07:34:30.526Z,12.88
2017-07-10T07:36:58.038Z,13.30
2017-07-10T07:39:25.637Z,14.73
2017-07-10T07:41:53.225Z,14.20
2017-07-10T07:44:20.833Z,15.55
2017-07-10T07:46:48.435Z,13.07
2017-07-10T07:49:15.954Z,13.53
2017-07-10T07:51:44.294Z,15.07
2017-07-10T07:54:12.514Z,15.05
2017-07-10T07:56:40.409Z,13.75
2017-07-10T07:59:07.914Z,13.82
2017-07-10T08:01:36.362Z,14.30
2017-07-10T08:04:03.931Z,13.85
2017-07-10T08:06:31.897Z,8.05
2017-07-10T08:08:59.570Z,7.40
2017-07-10T08:11:28.078Z,6.53
2017-07-10T08:13:55.878Z,8.55
2017-07-10T08:16:23.664Z,8.30
2017-07-10T08:18:51.363Z,8.50
2017-07-10T08:21:18.882Z,8.85
2017-07-10T08:23:46.575Z,5.37
2017-07-10T08:26:14.177Z,5.45
2017-07-10T08:28:41.717Z,5.90
2017-07-10T08:31:09.285Z,5.03
2017-07-10T08:33:36.791Z,5.00
2017-07-10T08:36:04.354Z,4.10
2017-07-10T08:38:32.177Z,4.50
2017-07-10T08:40:59.848Z,4.23
2017-07-10T08:43:27.496Z,5.33
2017-07-10T08:45:55.059Z,4.40
2017-07-10T08:48:22.636Z,4.65
2017-07-10T08:50:51.280Z,4.70
2017-07-10T08:53:18.929Z,4.97
2017-07-10T08:55:46.503Z,4.50
2017-07-10T08:58:14.018Z,4.07
2017-07-10T09:00:41.726Z,3.93
2017-07-10T09:03:09.316Z,3.30
2017-07-10T09:05:36.866Z,3.13
2017-07-10T09:08:05.177Z,2.87
2017-07-10T09:10:32.718Z,2.90
2017-07-10T09:13:00.319Z,2.85
2017-07-10T09:15:27.846Z,2.60
2017-07-10T09:17:55.439Z,3.20
2017-07-10T09:20:23.246Z,3.17
2017-07-10T09:22:51.657Z,2.00
2017-07-10T09:25:20.097Z,2.30
2017-07-10T09:27:48.521Z,1.87
2017-07-10T09:30:16.117Z,2.17
2017-07-10T09:32:43.698Z,1.83
2017-07-10T09:35:12.013Z,2.27
2017-07-10T09:37:39.560Z,2.63
2017-07-10T09:40:07.342Z,2.20
2017-07-10T09:42:34.997Z,2.00
2017-07-10T09:45:02.570Z,2.83
2017-07-10T09:47:30.077Z,2.10
2017-07-10T09:49:57.689Z,2.27
2017-07-10T09:52:25.338Z,2.47
2017-07-10T09:54:53.918Z,2.20
2017-07-10T09:57:21.649Z,2.70
2017-07-10T09:59:49.158Z,2.20
2017-07-10T10:02:16.935Z,2.37
2017-07-10T10:04:44.578Z,2.30
2017-07-10T10:07:12.418Z,2.90
2017-07-10T10:09:39.927Z,3.17
2017-07-10T10:12:07.704Z,2.80
2017-07-10T10:14:35.280Z,2.70
2017-07-10T10:17:02.985Z,3.10
2017-07-10T10:19:30.537Z,8.73
2017-07-10T10:21:58.138Z,2.70
2017-07-10T10:24:25.941Z,2.87
2017-07-10T10:26:53.762Z,3.37
2017-07-10T10:29:21.357Z,3.10
2017-07-10T10:31:48.862Z,2.47
2017-07-10T10:34:17.203Z,2.87
2017-07-10T10:36:44.925Z,2.50
2017-07-10T10:39:12.471Z,2.37
2017-07-10T10:41:40.039Z,2.47
2017-07-10T10:44:07.598Z,2.40
2017-07-10T10:46:35.481Z,2.87
2017-07-10T10:49:03.450Z,3.07
2017-07-10T10:51:30.987Z,3.00
2017-07-10T10:53:58.551Z,2.70
2017-07-10T10:56:26.429Z,2.57
2017-07-10T10:58:54.577Z,2.13
2017-07-10T11:01:22.457Z,2.33
2017-07-10T11:03:50.067Z,2.17
2017-07-10T11:06:18.408Z,1.80
2017-07-10T11:08:46.162Z,2.20
2017-07-10T11:11:14.076Z,2.73
2017-07-10T11:13:42.350Z,2.60
2017-07-10T11:16:10.822Z,2.10
2017-07-10T11:18:39.200Z,2.23
2017-07-10T11:21:07.469Z,2.00
2017-07-10T11:23:34.989Z,2.60
2017-07-10T11:26:02.547Z,2.53
2017-07-10T11:28:30.105Z,2.63
2017-07-10T11:30:57.613Z,2.23
2017-07-10T11:33:26.002Z,2.10
2017-07-10T11:35:54.453Z,2.60
2017-07-10T11:38:21.982Z,1.70
2017-07-10T11:40:49.591Z,2.43
2017-07-10T11:43:17.154Z,2.03
2017-07-10T11:45:44.954Z,2.40
2017-07-10T11:48:12.482Z,2.27
2017-07-10T11:50:40.375Z,2.20
2017-07-10T11:53:07.940Z,2.23
2017-07-10T11:55:35.494Z,2.23
2017-07-10T11:58:03.017Z,2.60
2017-07-10T12:00:30.813Z,2.27
2017-07-10T12:02:58.326Z,1.80
2017-07-10T12:05:26.168Z,2.47
2017-07-10T12:07:54.466Z,2.50
2017-07-10T12:10:21.973Z,1.90
2017-07-10T12:12:49.581Z,2.00
2017-07-10T12:15:17.169Z,1.57
2017-07-10T12:17:44.937Z,2.10
2017-07-10T12:20:12.471Z,1.80
2017-07-10T12:22:40.702Z,1.93
2017-07-10T12:25:08.306Z,1.97
2017-07-10T12:27:35.940Z,2.80
2017-07-10T12:30:03.748Z,2.03
2017-07-10T12:32:31.269Z,1.53
2017-07-10T12:34:58.835Z,3.23
2017-07-10T12:37:26.597Z,2.07
2017-07-10T12:39:54.181Z,2.23
2017-07-10T12:42:21.754Z,2.37
2017-07-10T12:44:49.612Z,2.83
2017-07-10T12:47:17.474Z,2.00
2017-07-10T12:49:45.190Z,2.70
2017-07-10T12:52:13.345Z,2.90
2017-07-10T12:54:41.820Z,2.40
2017-07-10T12:57:10.258Z,2.20
2017-07-10T12:59:37.853Z,2.63
2017-07-10T13:02:06.623Z,2.37
2017-07-10T13:04:34.314Z,2.63
2017-07-10T13:07:02.667Z,2.33
2017-07-10T13:09:30.191Z,2.23
2017-07-10T13:11:57.700Z,2.73
2017-07-10T13:14:25.998Z,2.60
2017-07-10T13:16:53.570Z,2.47
2017-07-10T13:19:21.139Z,2.27
2017-07-10T13:21:48.649Z,2.70
2017-07-10T13:24:16.329Z,2.20
2017-07-10T13:26:44.123Z,2.60
2017-07-10T13:29:11.753Z,3.00
2017-07-10T13:31:39.578Z,2.97
2017-07-10T13:34:07.195Z,3.17
2017-07-10T13:36:34.792Z,2.53
2017-07-10T13:39:02.454Z,2.47
2017-07-10T13:41:30.170Z,3.50
2017-07-10T13:43:58.179Z,3.00
2017-07-10T13:46:25.739Z,2.73
2017-07-10T13:48:54.358Z,2.30
2017-07-10T13:51:22.118Z,2.33
2017-07-10T13:53:49.737Z,2.53
2017-07-10T13:56:17.246Z,2.33
2017-07-10T13:58:44.857Z,2.50
2017-07-10T14:01:12.458Z,2.20
2017-07-10T14:03:40.042Z,2.23
2017-07-10T14:06:07.587Z,2.50
2017-07-10T14:08:35.107Z,2.67
2017-07-10T14:11:02.685Z,2.70
2017-07-10T14:13:30.370Z,2.30
2017-07-10T14:15:57.950Z,3.07
2017-07-10T14:18:25.490Z,2.50
2017-07-10T14:20:53.380Z,2.63
2017-07-10T14:23:21.244Z,3.40
2017-07-10T14:25:48.801Z,4.27
2017-07-10T14:28:17.275Z,5.05
2017-07-10T14:30:45.050Z,4.18
2017-07-10T14:33:13.165Z,5.00
2017-07-10T14:35:41.062Z,5.82
2017-07-10T14:38:08.638Z,5.28
2017-07-10T14:40:36.188Z,4.45
2017-07-10T14:43:03.847Z,5.72
2017-07-10T14:45:31.365Z,4.70
2017-07-10T14:47:59.943Z,4.85
2017-07-10T14:50:27.520Z,5.65
2017-07-10T14:52:55.301Z,5.15
2017-07-10T14:55:23.285Z,4.53
2017-07-10T14:57:50.814Z,5.20
2017-07-10T15:00:18.679Z,5.85
2017-07-10T15:02:46.197Z,4.70
2017-07-10T15:05:13.779Z,4.47
2017-07-10T15:07:42.064Z,5.75
2017-07-10T15:10:09.634Z,4.25
2017-07-10T15:12:38.030Z,4.55
2017-07-10T15:15:05.586Z,3.40
2017-07-10T15:17:33.095Z,3.03
2017-07-10T15:20:00.618Z,3.25
2017-07-10T15:22:28.125Z,3.17
2017-07-10T15:24:55.691Z,3.00
2017-07-10T15:27:23.799Z,3.35
2017-07-10T15:29:51.393Z,3.37
2017-07-10T15:32:18.987Z,3.30
2017-07-10T15:34:46.689Z,3.78
2017-07-10T15:37:15.015Z,3.85
2017-07-10T15:39:42.549Z,3.55
2017-07-10T15:42:10.060Z,3.25
2017-07-10T15:44:37.581Z,4.07
2017-07-10T15:47:05.338Z,3.42
2017-07-10T15:49:33.081Z,4.25
2017-07-10T15:52:00.650Z,4.00
2017-07-10T15:54:28.649Z,3.35
2017-07-10T15:56:56.208Z,3.70
2017-07-10T15:59:23.769Z,3.55
2017-07-10T16:01:51.390Z,4.00
2017-07-10T16:04:19.077Z,3.58
2017-07-10T16:06:46.636Z,3.92
2017-07-10T16:09:14.157Z,3.15
2017-07-10T16:11:41.722Z,3.40
2017-07-10T16:14:09.310Z,3.65
2017-07-10T16:16:36.998Z,3.58
2017-07-10T16:19:05.381Z,3.70
2017-07-10T16:21:33.766Z,4.40
2017-07-10T16:24:01.680Z,4.15
2017-07-10T16:26:29.181Z,3.70
2017-07-10T16:28:56.758Z,3.72
2017-07-10T16:31:24.327Z,3.22
2017-07-10T16:33:51.859Z,4.00
2017-07-10T16:36:19.425Z,3.50
2017-07-10T16:38:47.172Z,3.20
2017-07-10T16:41:14.678Z,3.35
2017-07-10T16:43:42.540Z,3.85
2017-07-10T16:46:10.222Z,3.87
2017-07-10T16:48:38.057Z,3.95
2017-07-10T16:51:05.631Z,3.95
2017-07-10T16:53:33.160Z,3.60
2017-07-10T16:56:00.685Z,3.83
2017-07-10T16:58:28.948Z,4.32
2017-07-10T17:00:56.517Z,3.55
2017-07-10T17:03:24.795Z,3.75
2017-07-10T17:05:52.382Z,3.78
2017-07-10T17:08:20.073Z,3.10
2017-07-10T17:10:47.917Z,4.30
2017-07-10T17:13:15.409Z,4.55
2017-07-10T17:15:43.335Z,3.72
2017-07-10T17:18:10.840Z,3.50
2017-07-10T17:20:39.152Z,3.25
2017-07-10T17:23:06.736Z,4.30
2017-07-10T17:25:34.448Z,3.70
2017-07-10T17:28:02.082Z,3.50
2017-07-10T17:30:29.652Z,3.50
2017-07-10T17:32:57.409Z,4.53
2017-07-10T17:35:24.964Z,4.00
2017-07-10T17:37:53.501Z,3.80
2017-07-10T17:40:21.900Z,3.80
2017-07-10T17:42:49.421Z,4.70
2017-07-10T17:45:16.991Z,4.60
2017-07-10T17:47:44.511Z,4.68
2017-07-10T17:50:12.142Z,4.22
2017-07-10T17:52:39.733Z,4.07
2017-07-10T17:55:07.282Z,4.72
2017-07-10T17:57:35.549Z,4.35
2017-07-10T18:00:03.370Z,3.95
2017-07-10T18:02:30.911Z,4.45
2017-07-10T18:04:58.475Z,4.37
2017-07-10T18:07:26.105Z,4.03
2017-07-10T18:09:53.787Z,4.80
2017-07-10T18:12:21.374Z,4.62
2017-07-10T18:14:48.903Z,4.40
2017-07-10T18:17:16.421Z,4.70
2017-07-10T18:19:44.980Z,4.55
2017-07-10T18:22:12.662Z,4.55
2017-07-10T18:24:40.953Z,4.18
2017-07-10T18:27:09.279Z,5.30
2017-07-10T18:29:36.803Z,4.85
2017-07-10T18:32:04.311Z,4.40
2017-07-10T18:34:32.885Z,4.90
2017-07-10T18:37:00.728Z,5.37
2017-07-10T18:39:28.252Z,5.78
2017-07-10T18:41:55.819Z,5.20
2017-07-10T18:44:23.401Z,5.78
2017-07-10T18:46:50.982Z,4.85
2017-07-10T18:49:18.486Z,4.53
2017-07-10T18:51:46.220Z,5.90
2017-07-10T18:54:13.784Z,4.72
2017-07-10T18:56:41.770Z,5.50
2017-07-10T18:59:10.685Z,5.18
2017-07-10T19:01:38.680Z,4.75
2017-07-10T19:04:06.258Z,5.35
2017-07-10T19:06:34.557Z,4.57
2017-07-10T19:09:02.078Z,4.55
2017-07-10T19:11:30.827Z,5.70
2017-07-10T19:13:58.398Z,4.93
2017-07-10T19:16:25.953Z,4.60
2017-07-10T19:18:53.473Z,4.40
2017-07-10T19:21:21.041Z,4.32
2017-07-10T19:23:48.810Z,5.43
2017-07-10T19:26:16.315Z,4.45
2017-07-10T19:28:43.878Z,4.85
2017-07-10T19:31:12.233Z,4.95
2017-07-10T19:33:39.737Z,4.10
2017-07-10T19:36:07.289Z,4.00
2017-07-10T19:38:34.794Z,3.90
2017-07-10T19:41:02.331Z,4.22
2017-07-10T19:43:30.385Z,4.28
2017-07-10T19:45:58.223Z,3.80
2017-07-10T19:48:25.823Z,4.25
2017-07-10T19:50:53.365Z,4.95
2017-07-10T19:53:20.895Z,5.10
2017-07-10T19:55:48.454Z,4.35
2017-07-10T19:58:17.076Z,4.47
2017-07-10T20:00:45.549Z,4.95
2017-07-10T20:03:13.137Z,4.75
2017-07-10T20:05:40.785Z,4.80
2017-07-10T20:08:09.444Z,4.70
2017-07-10T20:10:37.018Z,4.65
2017-07-10T20:13:04.566Z,5.07
2017-07-10T20:15:32.130Z,5.40
2017-07-10T20:17:59.699Z,5.00
2017-07-10T20:20:27.252Z,4.70
2017-07-10T20:22:54.785Z,5.78
2017-07-10T20:25:22.306Z,5.53
2017-07-10T20:27:49.873Z,5.15
2017-07-10T20:30:17.602Z,5.10
2017-07-10T20:32:45.169Z,6.22
2017-07-10T20:35:12.723Z,5.65
2017-07-10T20:37:40.257Z,5.75
2017-07-10T20:40:07.762Z,6.70
2017-07-10T20:42:36.494Z,6.47
2017-07-10T20:45:04.106Z,6.78
2017-07-10T20:47:31.897Z,5.97
2017-07-10T20:49:59.478Z,6.65
2017-07-10T20:52:27.200Z,6.18
2017-07-10T20:54:54.974Z,6.47
2017-07-10T20:57:22.746Z,6.40
2017-07-10T20:59:50.269Z,6.60
2017-07-10T21:02:18.174Z,7.55
2017-07-10T21:04:45.712Z,6.87
2017-07-10T21:07:13.489Z,7.60
2017-07-10T21:09:41.314Z,8.02
2017-07-10T21:12:10.210Z,8.65
2017-07-10T21:14:37.805Z,8.65
2017-07-10T21:17:05.497Z,7.95
2017-07-10T21:19:33.017Z,7.65
2017-07-10T21:22:00.561Z,7.75
2017-07-10T21:24:28.334Z,5.93
2017-07-10T21:26:56.123Z,5.05
2017-07-10T21:29:23.670Z,4.28
2017-07-10T21:31:51.194Z,4.12
2017-07-10T21:34:18.974Z,4.40
2017-07-10T21:36:46.505Z,4.03
2017-07-10T21:39:14.007Z,4.28
2017-07-10T21:41:41.794Z,3.97
2017-07-10T21:44:09.336Z,3.80
2017-07-10T21:46:36.861Z,3.75
2017-07-10T21:49:07.393Z,4.03
2017-07-10T21:51:35.201Z,4.00
2017-07-10T21:54:04.304Z,3.80
2017-07-10T21:56:33.189Z,3.67
2017-07-10T21:59:01.914Z,3.70
2017-07-10T22:01:29.553Z,4.32
2017-07-10T22:03:57.393Z,3.47
2017-07-10T22:06:25.673Z,4.18
2017-07-10T22:08:54.198Z,4.17
2017-07-10T22:11:21.723Z,4.15
2017-07-10T22:13:49.516Z,4.70
2017-07-10T22:16:17.198Z,4.78
2017-07-10T22:18:44.761Z,3.50
2017-07-10T22:21:12.548Z,4.47
2017-07-10T22:23:40.817Z,4.90
2017-07-10T22:26:09.373Z,4.55
2017-07-10T22:28:36.901Z,4.70
2017-07-10T22:31:04.424Z,4.78
2017-07-10T22:33:32.009Z,5.35
2017-07-10T22:35:59.872Z,5.35
2017-07-10T22:38:27.950Z,4.90
2017-07-10T22:40:55.514Z,5.15
2017-07-10T22:43:23.381Z,5.95
2017-07-10T22:45:51.241Z,6.03
2017-07-10T22:48:18.774Z,6.25
2017-07-10T22:50:46.613Z,5.62
2017-07-10T22:53:14.910Z,5.05
2017-07-10T22:55:42.477Z,5.75
2017-07-10T22:58:10.053Z,5.85
2017-07-10T23:00:39.750Z,5.57
2017-07-10T23:03:07.447Z,6.03
2017-07-10T23:05:34.957Z,6.68
2017-07-10T23:08:02.556Z,6.53
2017-07-10T23:10:30.403Z,6.25
2017-07-10T23:12:57.929Z,5.90
2017-07-10T23:15:25.453Z,5.95
2017-07-10T23:17:54.238Z,6.35
2017-07-10T23:20:22.591Z,6.12
2017-07-10T23:22:50.094Z,6.80
2017-07-10T23:25:17.671Z,6.50
2017-07-10T23:27:45.720Z,6.28
2017-07-10T23:30:13.290Z,6.68
2017-07-10T23:32:40.813Z,6.93
2017-07-10T23:35:08.640Z,7.22
2017-07-10T23:37:36.243Z,6.32
2017-07-10T23:40:03.822Z,6.50
2017-07-10T23:42:31.388Z,7.55
2017-07-10T23:44:59.173Z,7.95
2017-07-10T23:47:26.732Z,7.57
2017-07-10T23:49:54.269Z,7.45
2017-07-10T23:52:21.850Z,7.87
2017-07-10T23:54:49.435Z,7.57
2017-07-10T23:57:17.735Z,6.93
2017-07-10T23:59:46.001Z,7.53
